Terminal Aerodrome Forecast
Issued by NWS

Home | Current Version | Previous Version | Text Only | Print | Product List | Glossary On
Versions: 1 2 3 4 5 6 7 8 9 10 11 12 13 14 15 16 17 18
000
FTUS41 KGYX 210923 RRA
TAFHIE
TAF
KHIE 210923Z 2109/2206 00000KT P6SM OVC040
     FM211500 09005KT P6SM -SHRA OVC025
     FM211800 08004KT 3SM -RA BR OVC012=

USA.gov is the U.S. government's official web portal to all federal, state and local government web resources and services.